createdAt,value
2023-02-28T00:01:31.096Z,11.86
2023-02-28T00:04:00.953Z,11.87
2023-02-28T00:06:29.689Z,11.82
2023-02-28T00:08:58.066Z,11.77
2023-02-28T00:11:26.584Z,11.11
2023-02-28T00:13:55.046Z,11.14
2023-02-28T00:16:24.542Z,11.31
2023-02-28T00:18:53.285Z,11.65
2023-02-28T00:21:23.320Z,11.80
2023-02-28T00:23:51.636Z,11.89
2023-02-28T00:26:21.795Z,11.20
2023-02-28T00:28:50.765Z,11.19
2023-02-28T00:31:19.079Z,11.54
2023-02-28T00:33:47.366Z,11.04
2023-02-28T00:36:15.671Z,11.00
2023-02-28T00:38:45.528Z,11.27
2023-02-28T00:41:13.813Z,11.51
2023-02-28T00:43:42.409Z,11.72
2023-02-28T00:46:11.228Z,11.77
2023-02-28T00:48:39.798Z,11.52
2023-02-28T00:51:08.278Z,10.89
2023-02-28T00:53:36.523Z,11.27
2023-02-28T00:56:06.749Z,11.45
2023-02-28T00:58:35.098Z,11.59
2023-02-28T01:01:03.472Z,11.68
2023-02-28T01:03:31.727Z,11.66
2023-02-28T01:06:00.166Z,11.61
2023-02-28T01:08:28.463Z,11.11
2023-02-28T01:10:56.721Z,10.84
2023-02-28T01:13:26.949Z,10.66
2023-02-28T01:15:58.034Z,10.38
2023-02-28T01:18:26.571Z,11.25
2023-02-28T01:20:55.106Z,10.72
2023-02-28T01:23:24.988Z,10.76
2023-02-28T01:25:53.785Z,10.40
2023-02-28T01:28:22.366Z,10.15
2023-02-28T01:30:53.202Z,10.07
2023-02-28T01:33:21.631Z,10.75
2023-02-28T01:35:50.325Z,10.89
2023-02-28T01:38:23.130Z,10.88
2023-02-28T01:40:52.622Z,11.08
2023-02-28T01:43:26.040Z,11.20
2023-02-28T01:45:57.654Z,11.11
2023-02-28T01:48:29.396Z,10.76
2023-02-28T01:51:02.435Z,10.61
2023-02-28T01:53:36.802Z,11.14
2023-02-28T01:56:08.535Z,11.30
2023-02-28T01:58:38.705Z,10.75
2023-02-28T02:01:08.408Z,11.39
2023-02-28T02:03:38.302Z,11.51
2023-02-28T02:06:07.064Z,10.71
2023-02-28T02:08:35.403Z,10.53
2023-02-28T02:11:05.122Z,10.84
2023-02-28T02:13:56.702Z,10.97
2023-02-28T02:16:47.486Z,10.93
2023-02-28T02:19:48.532Z,10.77
2023-02-28T02:22:44.827Z,10.83
2023-02-28T02:25:30.909Z,10.17
2023-02-28T02:28:25.518Z,10.22
2023-02-28T02:31:21.158Z,10.14
2023-02-28T02:34:21.130Z,10.06
2023-02-28T02:36:54.430Z,10.23
2023-02-28T02:39:31.475Z,10.30
2023-02-28T02:42:05.429Z,10.40
2023-02-28T02:44:40.996Z,10.58
2023-02-28T02:47:14.186Z,10.59
2023-02-28T02:49:48.483Z,10.74
2023-02-28T02:52:20.593Z,10.79
2023-02-28T02:54:50.899Z,10.52
2023-02-28T02:57:28.463Z,10.65
2023-02-28T02:59:59.295Z,10.98
2023-02-28T03:02:35.441Z,11.04
2023-02-28T03:05:09.978Z,11.16
2023-02-28T03:07:38.316Z,10.52
2023-02-28T03:10:38.877Z,10.51
2023-02-28T03:13:34.927Z,10.75
2023-02-28T03:16:23.073Z,11.05
2023-02-28T03:19:01.548Z,10.81
2023-02-28T03:21:37.665Z,11.27
2023-02-28T03:24:10.416Z,11.16
2023-02-28T03:26:44.564Z,11.29
2023-02-28T03:29:23.651Z,11.55
2023-02-28T03:31:58.656Z,11.26
2023-02-28T03:34:32.113Z,11.45
2023-02-28T03:37:06.552Z,11.46
2023-02-28T03:39:41.700Z,11.46
2023-02-28T03:42:14.022Z,11.32
2023-02-28T03:44:45.391Z,11.35
2023-02-28T03:47:18.919Z,11.47
2023-02-28T03:49:51.556Z,11.50
2023-02-28T03:52:25.867Z,11.06
2023-02-28T03:54:58.683Z,10.51
2023-02-28T03:57:35.147Z,10.15
2023-02-28T04:00:08.210Z,10.60
2023-02-28T04:02:36.590Z,10.66
2023-02-28T04:05:04.951Z,10.48
2023-02-28T04:07:35.334Z,10.08
2023-02-28T04:10:03.735Z,9.96
2023-02-28T04:12:32.089Z,9.61
2023-02-28T04:15:00.383Z,9.59
2023-02-28T04:17:29.270Z,10.19
2023-02-28T04:19:58.365Z,10.46
2023-02-28T04:22:28.122Z,10.66
2023-02-28T04:24:57.846Z,10.71
2023-02-28T04:27:26.072Z,10.44
2023-02-28T04:29:54.362Z,10.05
2023-02-28T04:32:22.665Z,9.79
2023-02-28T04:34:50.844Z,10.06
2023-02-28T04:37:19.171Z,10.33
2023-02-28T04:39:47.430Z,10.64
2023-02-28T04:42:17.594Z,10.67
2023-02-28T04:44:45.844Z,10.59
2023-02-28T04:47:14.102Z,10.43
2023-02-28T04:49:42.652Z,10.66
2023-02-28T04:52:11.513Z,10.84
2023-02-28T04:54:40.977Z,11.06
2023-02-28T04:57:09.325Z,10.63
2023-02-28T04:59:39.478Z,10.44
2023-02-28T05:02:08.807Z,10.72
2023-02-28T05:04:37.603Z,10.55
2023-02-28T05:07:05.965Z,10.46
2023-02-28T05:09:35.738Z,10.53
2023-02-28T05:12:04.392Z,10.79
2023-02-28T05:14:32.689Z,10.92
2023-02-28T05:17:02.324Z,11.01
2023-02-28T05:19:30.983Z,10.78
2023-02-28T05:21:59.473Z,10.57
2023-02-28T05:24:27.873Z,10.16
2023-02-28T05:26:57.074Z,10.47
2023-02-28T05:29:25.433Z,10.03
2023-02-28T05:31:53.875Z,10.90
2023-02-28T05:34:23.731Z,10.88
2023-02-28T05:36:52.133Z,10.99
2023-02-28T05:39:20.467Z,10.94
2023-02-28T05:41:48.846Z,11.16
2023-02-28T05:44:18.006Z,11.24
2023-02-28T05:46:46.386Z,11.61
2023-02-28T05:49:14.723Z,11.63
2023-02-28T05:51:44.438Z,10.90
2023-02-28T05:54:13.953Z,10.98
2023-02-28T05:56:45.203Z,11.50
2023-02-28T05:59:14.571Z,11.35
2023-02-28T06:01:49.264Z,11.53
2023-02-28T06:04:31.022Z,11.71
2023-02-28T06:07:02.844Z,11.77
2023-02-28T06:09:31.219Z,11.85
2023-02-28T06:12:00.650Z,12.08
2023-02-28T06:14:28.934Z,12.27
2023-02-28T06:16:58.949Z,12.39
2023-02-28T06:19:27.778Z,12.42
2023-02-28T06:21:59.940Z,12.09
2023-02-28T06:24:32.546Z,10.64
2023-02-28T06:27:06.261Z,10.69
2023-02-28T06:29:35.620Z,10.87
2023-02-28T06:32:04.324Z,10.25
2023-02-28T06:34:32.620Z,10.18
2023-02-28T06:37:03.244Z,10.31
2023-02-28T06:39:33.298Z,10.21
2023-02-28T06:42:01.640Z,10.11
2023-02-28T06:44:36.548Z,10.16
2023-02-28T06:47:06.364Z,9.95
2023-02-28T06:49:36.640Z,10.49
2023-02-28T06:52:05.524Z,11.11
2023-02-28T06:54:35.196Z,11.11
2023-02-28T06:57:03.431Z,11.53
2023-02-28T06:59:31.625Z,11.57
2023-02-28T07:01:59.901Z,11.72
2023-02-28T07:04:28.909Z,11.80
2023-02-28T07:06:58.118Z,11.92
2023-02-28T07:09:30.857Z,11.57
2023-02-28T07:12:01.670Z,11.82
2023-02-28T07:14:29.922Z,11.91
2023-02-28T07:16:58.379Z,11.54
2023-02-28T07:19:26.690Z,11.56
2023-02-28T07:21:54.962Z,11.39
2023-02-28T07:24:26.895Z,11.75
2023-02-28T07:26:55.224Z,11.94
2023-02-28T07:29:24.909Z,12.10
2023-02-28T07:31:54.334Z,11.66
2023-02-28T07:34:22.860Z,11.57
2023-02-28T07:36:54.740Z,11.88
2023-02-28T07:39:23.820Z,12.22
2023-02-28T07:41:52.016Z,12.01
2023-02-28T07:44:20.343Z,12.22
2023-02-28T07:46:50.139Z,12.42
2023-02-28T07:49:18.405Z,12.41
2023-02-28T07:51:46.839Z,12.82
2023-02-28T07:54:15.108Z,12.79
2023-02-28T07:56:43.370Z,12.70
2023-02-28T07:59:11.794Z,12.71
2023-02-28T08:01:40.229Z,12.71
2023-02-28T08:04:09.834Z,13.23
2023-02-28T08:06:38.134Z,13.10
2023-02-28T08:09:06.418Z,13.13
2023-02-28T08:11:34.756Z,13.40
2023-02-28T08:14:03.115Z,13.88
2023-02-28T08:16:31.455Z,14.46
2023-02-28T08:18:59.812Z,14.45
2023-02-28T08:21:29.919Z,14.51
2023-02-28T08:23:58.735Z,14.91
2023-02-28T08:26:27.004Z,14.99
2023-02-28T08:28:57.011Z,15.70
2023-02-28T08:31:25.670Z,15.72
2023-02-28T08:33:54.309Z,16.20
2023-02-28T08:36:22.722Z,16.00
2023-02-28T08:38:52.477Z,15.88
2023-02-28T08:41:20.774Z,15.97
2023-02-28T08:43:48.945Z,15.60
2023-02-28T08:46:17.205Z,15.67
2023-02-28T08:48:46.331Z,16.48
2023-02-28T08:51:17.358Z,17.30
2023-02-28T08:53:45.695Z,17.73
2023-02-28T08:56:17.778Z,18.32
2023-02-28T08:58:47.244Z,17.90
2023-02-28T09:01:17.604Z,18.39
2023-02-28T09:03:47.242Z,18.70
2023-02-28T09:06:16.749Z,18.74
2023-02-28T09:08:45.603Z,17.88
2023-02-28T09:11:15.569Z,18.08
2023-02-28T09:13:43.865Z,18.80
2023-02-28T09:16:14.156Z,18.82
2023-02-28T09:18:43.070Z,18.86
2023-02-28T09:21:15.185Z,19.23
2023-02-28T09:23:43.702Z,19.31
2023-02-28T09:26:18.088Z,19.08
2023-02-28T09:28:46.606Z,19.12
2023-02-28T09:31:16.300Z,19.54
2023-02-28T09:33:44.874Z,19.91
2023-02-28T09:36:13.243Z,19.65
2023-02-28T09:38:41.973Z,19.18
2023-02-28T09:41:15.716Z,18.42
2023-02-28T09:43:49.600Z,17.91
2023-02-28T09:46:29.480Z,17.10
2023-02-28T09:48:59.241Z,17.62
2023-02-28T09:51:40.307Z,16.86
2023-02-28T09:54:11.877Z,16.32
2023-02-28T09:56:43.663Z,16.46
2023-02-28T09:59:26.994Z,17.28
2023-02-28T10:02:01.101Z,17.89
2023-02-28T10:04:44.299Z,18.43
2023-02-28T10:07:24.116Z,19.16
2023-02-28T10:09:57.308Z,19.73
2023-02-28T10:12:28.492Z,19.17
2023-02-28T10:15:03.524Z,18.82
2023-02-28T10:17:55.022Z,18.90
2023-02-28T10:20:31.026Z,18.64
2023-02-28T10:23:08.626Z,19.18
2023-02-28T10:25:38.678Z,19.09
2023-02-28T10:28:13.330Z,19.31
2023-02-28T10:30:46.312Z,18.64
2023-02-28T10:33:22.401Z,18.81
2023-02-28T10:35:51.221Z,19.26
2023-02-28T10:38:21.945Z,19.59
2023-02-28T10:40:50.644Z,19.13
2023-02-28T10:43:25.756Z,19.03
2023-02-28T10:46:03.440Z,19.19
2023-02-28T10:48:40.390Z,18.78
2023-02-28T10:51:10.134Z,19.09
2023-02-28T10:54:00.703Z,18.79
2023-02-28T10:56:32.329Z,19.33
2023-02-28T10:59:03.355Z,19.67
2023-02-28T11:01:41.640Z,18.97
2023-02-28T11:04:37.056Z,19.01
2023-02-28T11:07:07.397Z,18.55
2023-02-28T11:09:37.902Z,17.59
2023-02-28T11:12:08.703Z,17.10
2023-02-28T11:14:42.595Z,17.33
2023-02-28T11:17:21.716Z,17.37
2023-02-28T11:19:54.844Z,17.47
2023-02-28T11:22:27.168Z,17.53
2023-02-28T11:24:58.248Z,17.57
2023-02-28T11:27:49.307Z,16.95
2023-02-28T11:30:34.573Z,17.14
2023-02-28T11:33:23.853Z,16.73
2023-02-28T11:35:53.442Z,16.41
2023-02-28T11:38:21.758Z,16.58
2023-02-28T11:41:04.871Z,16.82
2023-02-28T11:43:59.428Z,16.45
2023-02-28T11:46:36.103Z,16.76
2023-02-28T11:49:21.101Z,16.51
2023-02-28T11:51:53.933Z,16.79
2023-02-28T11:54:49.700Z,16.75
2023-02-28T11:57:32.694Z,15.35
2023-02-28T12:00:08.996Z,16.07
2023-02-28T12:02:53.291Z,15.88
2023-02-28T12:05:31.635Z,16.43
2023-02-28T12:08:08.448Z,16.68
2023-02-28T12:10:44.469Z,16.36
2023-02-28T12:13:23.712Z,15.87
2023-02-28T12:16:14.442Z,15.89
2023-02-28T12:18:55.632Z,15.42
2023-02-28T12:21:36.331Z,15.73
2023-02-28T12:24:29.731Z,15.70
2023-02-28T12:27:01.936Z,15.85
2023-02-28T12:29:33.162Z,15.13
2023-02-28T12:32:07.445Z,14.43
2023-02-28T12:34:39.466Z,14.61
2023-02-28T12:37:16.054Z,14.01
2023-02-28T12:39:50.898Z,13.90
2023-02-28T12:42:26.429Z,13.38
2023-02-28T12:44:59.107Z,13.23
2023-02-28T12:47:27.570Z,12.99
2023-02-28T12:50:00.965Z,12.98
2023-02-28T12:52:43.042Z,12.88
2023-02-28T12:55:22.088Z,12.55
2023-02-28T12:57:56.167Z,13.05
2023-02-28T13:00:27.929Z,12.84
2023-02-28T13:03:19.519Z,12.54
2023-02-28T13:06:22.400Z,12.43
2023-02-28T13:09:06.920Z,12.39
2023-02-28T13:11:41.068Z,12.33
2023-02-28T13:14:22.360Z,12.31
2023-02-28T13:17:01.465Z,12.52
2023-02-28T13:19:32.266Z,12.39
2023-02-28T13:22:01.720Z,12.30
2023-02-28T13:24:47.660Z,12.15
2023-02-28T13:27:35.413Z,12.12
2023-02-28T13:30:24.432Z,12.09
2023-02-28T13:33:24.210Z,12.03
2023-02-28T13:36:09.505Z,12.02
2023-02-28T13:38:45.118Z,11.53
2023-02-28T13:41:46.622Z,12.08
2023-02-28T13:44:18.753Z,12.15
2023-02-28T13:47:35.914Z,12.34
2023-02-28T13:50:30.925Z,12.46
2023-02-28T13:53:29.016Z,12.64
2023-02-28T13:56:06.850Z,12.80
2023-02-28T13:58:46.718Z,12.34
2023-02-28T14:01:30.151Z,12.85
2023-02-28T14:04:18.260Z,12.60
2023-02-28T14:06:51.109Z,12.69
2023-02-28T14:09:25.983Z,12.67
2023-02-28T14:11:54.838Z,12.87
2023-02-28T14:14:57.751Z,12.80
2023-02-28T14:17:28.372Z,12.97
2023-02-28T14:19:57.158Z,12.85
2023-02-28T14:22:46.839Z,12.85
2023-02-28T14:25:26.397Z,12.85
2023-02-28T14:28:06.817Z,12.90
2023-02-28T14:30:58.477Z,12.97
2023-02-28T14:33:40.958Z,12.75
2023-02-28T14:36:16.993Z,13.21
2023-02-28T14:38:49.467Z,13.31
2023-02-28T14:41:22.534Z,13.48
2023-02-28T14:43:53.348Z,13.69
2023-02-28T14:46:22.272Z,13.51
2023-02-28T14:48:52.994Z,13.81
2023-02-28T14:51:22.840Z,13.42
2023-02-28T14:53:56.675Z,13.81
2023-02-28T14:56:28.504Z,13.93
2023-02-28T14:58:58.073Z,13.80
2023-02-28T15:01:27.625Z,13.89
2023-02-28T15:04:08.398Z,14.07
2023-02-28T15:06:36.658Z,14.06
2023-02-28T15:09:15.680Z,13.96
2023-02-28T15:11:47.319Z,13.92
2023-02-28T15:14:21.556Z,13.72
2023-02-28T15:16:55.193Z,13.62
2023-02-28T15:19:27.371Z,13.81
2023-02-28T15:22:02.255Z,13.80
2023-02-28T15:24:39.506Z,13.71
2023-02-28T15:27:10.281Z,12.99
2023-02-28T15:29:47.393Z,12.72
2023-02-28T15:32:29.616Z,13.05
2023-02-28T15:35:01.155Z,12.59
2023-02-28T15:37:32.235Z,12.64
2023-02-28T15:40:12.522Z,11.98
2023-02-28T15:42:40.926Z,12.71
2023-02-28T15:45:30.841Z,12.63
2023-02-28T15:48:13.726Z,12.67
2023-02-28T15:50:44.384Z,12.71
2023-02-28T15:53:18.856Z,12.90
2023-02-28T15:55:47.560Z,12.89
2023-02-28T15:58:25.166Z,12.84
2023-02-28T16:01:08.591Z,12.11
2023-02-28T16:03:47.451Z,11.65
2023-02-28T16:06:37.951Z,11.63
2023-02-28T16:09:09.550Z,11.45
2023-02-28T16:11:42.285Z,11.48
2023-02-28T16:14:17.490Z,11.48
2023-02-28T16:16:48.295Z,11.65
2023-02-28T16:19:16.667Z,11.76
2023-02-28T16:21:46.421Z,10.97
2023-02-28T16:24:14.864Z,11.57
2023-02-28T16:26:47.655Z,11.80
2023-02-28T16:29:21.857Z,11.76
2023-02-28T16:31:50.190Z,11.97
2023-02-28T16:34:18.516Z,11.99
2023-02-28T16:36:49.484Z,11.99
2023-02-28T16:39:17.683Z,11.90
2023-02-28T16:41:47.594Z,11.81
2023-02-28T16:44:27.224Z,11.87
2023-02-28T16:46:57.369Z,11.35
2023-02-28T16:49:25.742Z,11.24
2023-02-28T16:51:55.752Z,11.36
2023-02-28T16:54:24.061Z,11.65
2023-02-28T16:56:52.524Z,11.14
2023-02-28T16:59:31.182Z,11.32
2023-02-28T17:01:59.937Z,11.22
2023-02-28T17:04:28.539Z,11.28
2023-02-28T17:06:58.164Z,11.54
2023-02-28T17:09:40.138Z,11.38
2023-02-28T17:12:10.317Z,11.23
2023-02-28T17:14:38.572Z,11.24
2023-02-28T17:17:07.020Z,10.30
2023-02-28T17:19:37.155Z,11.57
2023-02-28T17:22:06.958Z,11.62
2023-02-28T17:24:35.285Z,11.40
2023-02-28T17:27:03.646Z,11.25
2023-02-28T17:29:31.930Z,11.16
2023-02-28T17:32:03.092Z,11.19
2023-02-28T17:34:38.388Z,11.44
2023-02-28T17:37:08.163Z,11.43
2023-02-28T17:39:36.499Z,11.75
2023-02-28T17:42:05.282Z,11.67
2023-02-28T17:44:33.545Z,11.69
2023-02-28T17:47:02.095Z,11.73
2023-02-28T17:49:30.407Z,11.61
2023-02-28T17:51:58.714Z,11.63
2023-02-28T17:54:28.490Z,11.39
2023-02-28T17:56:56.976Z,11.39
2023-02-28T17:59:25.301Z,11.45
2023-02-28T18:01:53.507Z,11.27
2023-02-28T18:04:21.881Z,11.06
2023-02-28T18:06:51.122Z,10.93
2023-02-28T18:09:22.846Z,11.10
2023-02-28T18:11:53.893Z,11.24
2023-02-28T18:14:24.702Z,11.02
2023-02-28T18:16:54.131Z,11.01
2023-02-28T18:19:22.891Z,10.99
2023-02-28T18:21:53.404Z,11.04
2023-02-28T18:24:23.143Z,11.08
2023-02-28T18:26:52.859Z,11.10
2023-02-28T18:29:23.255Z,11.11
2023-02-28T18:31:51.804Z,10.87
2023-02-28T18:34:20.762Z,10.64
2023-02-28T18:36:51.085Z,10.65
2023-02-28T18:39:19.714Z,10.69
2023-02-28T18:41:48.017Z,10.88
2023-02-28T18:44:20.152Z,10.47
2023-02-28T18:46:49.228Z,10.57
2023-02-28T18:49:17.609Z,10.62
2023-02-28T18:51:46.843Z,10.82
2023-02-28T18:54:16.504Z,10.78
2023-02-28T18:56:45.136Z,10.76
2023-02-28T18:59:13.685Z,10.66
2023-02-28T19:01:44.674Z,10.66
2023-02-28T19:04:14.729Z,10.53
2023-02-28T19:06:43.276Z,10.61
2023-02-28T19:09:11.842Z,10.37
2023-02-28T19:11:40.718Z,10.11
2023-02-28T19:14:09.741Z,9.73
2023-02-28T19:16:38.308Z,9.91
2023-02-28T19:19:08.239Z,9.68
2023-02-28T19:21:37.339Z,9.28
2023-02-28T19:24:06.156Z,9.92
2023-02-28T19:26:34.538Z,9.79
2023-02-28T19:29:05.015Z,10.13
2023-02-28T19:31:33.747Z,10.33
2023-02-28T19:34:02.448Z,10.41
2023-02-28T19:36:32.098Z,10.30
2023-02-28T19:39:00.448Z,10.65
2023-02-28T19:41:29.068Z,10.48
2023-02-28T19:43:57.442Z,10.49
2023-02-28T19:46:26.405Z,10.47
2023-02-28T19:48:55.405Z,10.34
2023-02-28T19:51:24.365Z,10.29
2023-02-28T19:53:54.199Z,10.14
2023-02-28T19:56:22.540Z,9.73
2023-02-28T19:58:50.818Z,10.28
2023-02-28T20:01:20.511Z,10.04
2023-02-28T20:03:50.548Z,9.97
2023-02-28T20:06:19.526Z,10.19
2023-02-28T20:08:47.789Z,10.05
2023-02-28T20:11:18.358Z,9.87
2023-02-28T20:13:47.002Z,9.42
2023-02-28T20:16:16.608Z,9.26
2023-02-28T20:18:46.319Z,9.54
2023-02-28T20:21:16.710Z,9.53
2023-02-28T20:23:45.772Z,9.31
2023-02-28T20:26:14.399Z,9.32
2023-02-28T20:28:44.908Z,9.36
2023-02-28T20:31:14.127Z,9.82
2023-02-28T20:33:43.917Z,9.22
2023-02-28T20:36:15.783Z,9.52
2023-02-28T20:38:44.521Z,9.45
2023-02-28T20:41:13.502Z,9.46
2023-02-28T20:43:43.375Z,9.54
2023-02-28T20:46:12.061Z,9.35
2023-02-28T20:48:40.887Z,9.39
2023-02-28T20:51:09.444Z,8.85
2023-02-28T20:53:37.868Z,9.63
2023-02-28T20:56:09.037Z,9.63
2023-02-28T20:58:39.298Z,9.54
2023-02-28T21:01:12.995Z,9.35
2023-02-28T21:03:41.696Z,9.74
2023-02-28T21:06:10.291Z,9.15
2023-02-28T21:08:40.053Z,9.03
2023-02-28T21:11:10.144Z,9.09
2023-02-28T21:13:38.894Z,8.76
2023-02-28T21:16:10.461Z,8.94
2023-02-28T21:18:39.823Z,8.77
2023-02-28T21:21:09.698Z,8.73
2023-02-28T21:23:38.095Z,9.35
2023-02-28T21:26:08.019Z,9.21
2023-02-28T21:28:37.182Z,9.28
2023-02-28T21:31:07.897Z,9.32
2023-02-28T21:33:37.943Z,8.84
2023-02-28T21:36:08.540Z,9.23
2023-02-28T21:38:37.790Z,9.39
2023-02-28T21:41:06.943Z,9.22
2023-02-28T21:43:35.548Z,9.35
2023-02-28T21:46:04.792Z,9.93
2023-02-28T21:48:33.876Z,9.53
2023-02-28T21:51:06.614Z,9.94
2023-02-28T21:53:37.371Z,10.05
2023-02-28T21:56:08.521Z,9.92
2023-02-28T21:58:36.839Z,10.10
2023-02-28T22:01:09.317Z,10.24
2023-02-28T22:03:38.698Z,9.86
2023-02-28T22:06:14.271Z,9.98
2023-02-28T22:08:43.236Z,10.01
2023-02-28T22:11:11.898Z,9.87
2023-02-28T22:13:42.350Z,9.89
2023-02-28T22:16:12.962Z,9.31
2023-02-28T22:18:42.154Z,9.44
2023-02-28T22:21:13.118Z,9.42
2023-02-28T22:23:42.823Z,9.70
2023-02-28T22:26:13.317Z,9.55
2023-02-28T22:28:42.543Z,9.10
2023-02-28T22:31:16.226Z,9.44
2023-02-28T22:33:45.268Z,9.54
2023-02-28T22:36:16.672Z,9.47
2023-02-28T22:38:46.177Z,9.27
2023-02-28T22:41:14.982Z,9.01
2023-02-28T22:43:44.296Z,9.19
2023-02-28T22:46:14.467Z,9.02
2023-02-28T22:48:42.797Z,9.17
2023-02-28T22:51:14.943Z,9.12
2023-02-28T22:53:46.785Z,9.21
2023-02-28T22:56:16.609Z,9.48
2023-02-28T22:58:45.804Z,9.74
2023-02-28T23:01:15.650Z,9.77
2023-02-28T23:03:45.170Z,9.88
2023-02-28T23:06:16.360Z,9.69
2023-02-28T23:08:46.071Z,10.11
2023-02-28T23:11:20.080Z,10.02
2023-02-28T23:13:58.446Z,9.33
2023-02-28T23:16:29.708Z,9.63
2023-02-28T23:18:59.903Z,9.84
2023-02-28T23:21:29.336Z,9.06
2023-02-28T23:23:59.235Z,9.56
2023-02-28T23:26:27.788Z,9.43
2023-02-28T23:28:56.317Z,9.88
2023-02-28T23:31:25.157Z,9.56
2023-02-28T23:33:53.398Z,9.86
2023-02-28T23:36:21.957Z,9.54
2023-02-28T23:38:52.045Z,9.60
2023-02-28T23:41:23.194Z,9.14
2023-02-28T23:43:52.532Z,9.35
2023-02-28T23:46:21.909Z,9.60
2023-02-28T23:48:50.685Z,9.04
2023-02-28T23:51:21.826Z,9.42
2023-02-28T23:53:53.586Z,9.40
2023-02-28T23:56:24.984Z,9.48
2023-02-28T23:58:53.287Z,9.51
